sensor_id;sensor_type;location;lat;lon;timestamp;P1;durP1;ratioP1;P2;durP2;ratioP2
13408;SDS011;6775;49.574;11.170;2023-11-22T00:01:55;2.40;;;2.20;;
13408;SDS011;6775;49.574;11.170;2023-11-22T00:04:23;3.00;;;2.67;;
13408;SDS011;6775;49.574;11.170;2023-11-22T00:06:52;3.13;;;2.80;;
13408;SDS011;6775;49.574;11.170;2023-11-22T00:09:20;3.80;;;2.80;;
13408;SDS011;6775;49.574;11.170;2023-11-22T00:11:49;3.20;;;2.57;;
13408;SDS011;6775;49.574;11.170;2023-11-22T00:14:17;3.33;;;2.47;;
13408;SDS011;6775;49.574;11.170;2023-11-22T00:16:46;3.27;;;2.70;;
13408;SDS011;6775;49.574;11.170;2023-11-22T00:19:15;2.43;;;2.20;;
13408;SDS011;6775;49.574;11.170;2023-11-22T00:21:44;3.27;;;2.60;;
13408;SDS011;6775;49.574;11.170;2023-11-22T00:24:12;2.90;;;2.20;;
13408;SDS011;6775;49.574;11.170;2023-11-22T00:26:40;3.47;;;2.43;;
13408;SDS011;6775;49.574;11.170;2023-11-22T00:29:08;2.40;;;2.20;;
13408;SDS011;6775;49.574;11.170;2023-11-22T00:31:36;2.90;;;2.50;;
13408;SDS011;6775;49.574;11.170;2023-11-22T00:34:06;5.00;;;2.73;;
13408;SDS011;6775;49.574;11.170;2023-11-22T00:36:34;3.10;;;2.70;;
13408;SDS011;6775;49.574;11.170;2023-11-22T00:39:03;3.47;;;2.50;;
13408;SDS011;6775;49.574;11.170;2023-11-22T00:41:31;3.80;;;2.80;;
13408;SDS011;6775;49.574;11.170;2023-11-22T00:44:01;3.87;;;3.10;;
13408;SDS011;6775;49.574;11.170;2023-11-22T00:46:32;3.17;;;2.70;;
13408;SDS011;6775;49.574;11.170;2023-11-22T00:49:00;2.60;;;2.40;;
13408;SDS011;6775;49.574;11.170;2023-11-22T00:51:29;2.97;;;2.67;;
13408;SDS011;6775;49.574;11.170;2023-11-22T00:53:57;3.00;;;2.60;;
13408;SDS011;6775;49.574;11.170;2023-11-22T00:56:25;3.50;;;2.80;;
13408;SDS011;6775;49.574;11.170;2023-11-22T00:58:54;4.30;;;2.80;;
13408;SDS011;6775;49.574;11.170;2023-11-22T01:01:23;3.10;;;2.37;;
13408;SDS011;6775;49.574;11.170;2023-11-22T01:03:51;3.20;;;2.90;;
13408;SDS011;6775;49.574;11.170;2023-11-22T01:06:19;4.20;;;2.97;;
13408;SDS011;6775;49.574;11.170;2023-11-22T01:08:50;2.93;;;2.63;;
13408;SDS011;6775;49.574;11.170;2023-11-22T01:11:18;2.47;;;2.27;;
13408;SDS011;6775;49.574;11.170;2023-11-22T01:13:47;3.17;;;2.67;;
13408;SDS011;6775;49.574;11.170;2023-11-22T01:16:15;3.53;;;2.83;;
13408;SDS011;6775;49.574;11.170;2023-11-22T01:18:43;3.23;;;2.83;;
13408;SDS011;6775;49.574;11.170;2023-11-22T01:21:12;3.67;;;2.93;;
13408;SDS011;6775;49.574;11.170;2023-11-22T01:23:40;3.43;;;2.73;;
13408;SDS011;6775;49.574;11.170;2023-11-22T01:26:09;4.30;;;3.00;;
13408;SDS011;6775;49.574;11.170;2023-11-22T01:28:38;3.57;;;2.77;;
13408;SDS011;6775;49.574;11.170;2023-11-22T01:31:11;3.73;;;2.93;;
13408;SDS011;6775;49.574;11.170;2023-11-22T01:33:40;4.37;;;3.27;;
13408;SDS011;6775;49.574;11.170;2023-11-22T01:36:08;3.83;;;3.43;;
13408;SDS011;6775;49.574;11.170;2023-11-22T01:38:36;4.03;;;3.27;;
13408;SDS011;6775;49.574;11.170;2023-11-22T01:41:05;3.77;;;3.27;;
13408;SDS011;6775;49.574;11.170;2023-11-22T01:43:35;6.87;;;3.40;;
13408;SDS011;6775;49.574;11.170;2023-11-22T01:46:06;4.70;;;3.03;;
13408;SDS011;6775;49.574;11.170;2023-11-22T01:48:35;5.33;;;3.20;;
13408;SDS011;6775;49.574;11.170;2023-11-22T01:51:03;3.83;;;3.00;;
13408;SDS011;6775;49.574;11.170;2023-11-22T01:53:34;3.77;;;2.73;;
13408;SDS011;6775;49.574;11.170;2023-11-22T01:56:03;5.90;;;3.17;;
13408;SDS011;6775;49.574;11.170;2023-11-22T01:58:31;3.73;;;3.07;;
13408;SDS011;6775;49.574;11.170;2023-11-22T02:01:02;3.93;;;2.70;;
13408;SDS011;6775;49.574;11.170;2023-11-22T02:03:33;4.73;;;3.17;;
13408;SDS011;6775;49.574;11.170;2023-11-22T02:06:01;4.87;;;3.50;;
13408;SDS011;6775;49.574;11.170;2023-11-22T02:08:29;4.23;;;3.40;;
13408;SDS011;6775;49.574;11.170;2023-11-22T02:10:57;3.30;;;2.73;;
13408;SDS011;6775;49.574;11.170;2023-11-22T02:13:28;4.20;;;3.20;;
13408;SDS011;6775;49.574;11.170;2023-11-22T02:15:56;4.30;;;2.83;;
13408;SDS011;6775;49.574;11.170;2023-11-22T02:18:27;4.00;;;2.70;;
13408;SDS011;6775;49.574;11.170;2023-11-22T02:20:55;4.53;;;2.67;;
13408;SDS011;6775;49.574;11.170;2023-11-22T02:23:25;3.53;;;3.00;;
13408;SDS011;6775;49.574;11.170;2023-11-22T02:25:54;4.90;;;2.83;;
13408;SDS011;6775;49.574;11.170;2023-11-22T02:28:22;3.60;;;2.77;;
13408;SDS011;6775;49.574;11.170;2023-11-22T02:30:50;3.63;;;2.30;;
13408;SDS011;6775;49.574;11.170;2023-11-22T02:33:18;3.20;;;2.90;;
13408;SDS011;6775;49.574;11.170;2023-11-22T02:35:46;3.60;;;2.83;;
13408;SDS011;6775;49.574;11.170;2023-11-22T02:38:16;4.07;;;2.90;;
13408;SDS011;6775;49.574;11.170;2023-11-22T02:40:46;4.50;;;3.17;;
13408;SDS011;6775;49.574;11.170;2023-11-22T02:43:16;3.27;;;2.70;;
13408;SDS011;6775;49.574;11.170;2023-11-22T02:45:44;5.30;;;3.20;;
13408;SDS011;6775;49.574;11.170;2023-11-22T02:48:12;3.90;;;3.10;;
13408;SDS011;6775;49.574;11.170;2023-11-22T02:50:40;4.77;;;3.30;;
13408;SDS011;6775;49.574;11.170;2023-11-22T02:53:10;4.17;;;3.00;;
13408;SDS011;6775;49.574;11.170;2023-11-22T02:55:38;3.13;;;2.67;;
13408;SDS011;6775;49.574;11.170;2023-11-22T02:58:08;3.20;;;2.73;;
13408;SDS011;6775;49.574;11.170;2023-11-22T03:00:39;3.83;;;2.90;;
13408;SDS011;6775;49.574;11.170;2023-11-22T03:03:08;4.30;;;2.97;;
13408;SDS011;6775;49.574;11.170;2023-11-22T03:05:38;3.60;;;2.73;;
13408;SDS011;6775;49.574;11.170;2023-11-22T03:08:06;4.13;;;3.00;;
13408;SDS011;6775;49.574;11.170;2023-11-22T03:10:36;3.53;;;2.63;;
13408;SDS011;6775;49.574;11.170;2023-11-22T03:13:04;3.50;;;2.63;;
13408;SDS011;6775;49.574;11.170;2023-11-22T03:15:34;3.20;;;2.90;;
13408;SDS011;6775;49.574;11.170;2023-11-22T03:18:02;3.00;;;2.43;;
13408;SDS011;6775;49.574;11.170;2023-11-22T03:20:32;3.43;;;2.63;;
13408;SDS011;6775;49.574;11.170;2023-11-22T03:23:00;3.13;;;2.57;;
13408;SDS011;6775;49.574;11.170;2023-11-22T03:25:28;3.37;;;2.70;;
13408;SDS011;6775;49.574;11.170;2023-11-22T03:27:56;4.03;;;2.53;;
13408;SDS011;6775;49.574;11.170;2023-11-22T03:30:25;2.70;;;2.37;;
13408;SDS011;6775;49.574;11.170;2023-11-22T03:32:54;2.97;;;2.30;;
13408;SDS011;6775;49.574;11.170;2023-11-22T03:35:22;3.10;;;2.57;;
13408;SDS011;6775;49.574;11.170;2023-11-22T03:37:50;2.30;;;2.10;;
13408;SDS011;6775;49.574;11.170;2023-11-22T03:40:18;3.93;;;2.63;;
13408;SDS011;6775;49.574;11.170;2023-11-22T03:42:47;2.80;;;2.20;;
13408;SDS011;6775;49.574;11.170;2023-11-22T03:45:15;3.17;;;2.40;;
13408;SDS011;6775;49.574;11.170;2023-11-22T03:47:43;2.90;;;2.50;;
13408;SDS011;6775;49.574;11.170;2023-11-22T03:50:12;4.67;;;2.50;;
13408;SDS011;6775;49.574;11.170;2023-11-22T03:52:41;3.13;;;2.50;;
13408;SDS011;6775;49.574;11.170;2023-11-22T03:55:09;3.50;;;2.60;;
13408;SDS011;6775;49.574;11.170;2023-11-22T03:57:37;3.20;;;2.80;;
13408;SDS011;6775;49.574;11.170;2023-11-22T04:00:05;3.43;;;2.73;;
13408;SDS011;6775;49.574;11.170;2023-11-22T04:02:36;3.43;;;2.73;;
13408;SDS011;6775;49.574;11.170;2023-11-22T04:05:05;4.83;;;2.90;;
13408;SDS011;6775;49.574;11.170;2023-11-22T04:07:36;3.83;;;3.13;;
13408;SDS011;6775;49.574;11.170;2023-11-22T04:10:05;4.50;;;3.20;;
13408;SDS011;6775;49.574;11.170;2023-11-22T04:12:34;3.07;;;2.47;;
13408;SDS011;6775;49.574;11.170;2023-11-22T04:15:03;3.17;;;2.30;;
13408;SDS011;6775;49.574;11.170;2023-11-22T04:17:35;4.17;;;2.87;;
13408;SDS011;6775;49.574;11.170;2023-11-22T04:20:05;3.83;;;2.37;;
13408;SDS011;6775;49.574;11.170;2023-11-22T04:22:38;3.10;;;2.47;;
13408;SDS011;6775;49.574;11.170;2023-11-22T04:25:07;2.83;;;2.47;;
13408;SDS011;6775;49.574;11.170;2023-11-22T04:27:35;4.50;;;3.30;;
13408;SDS011;6775;49.574;11.170;2023-11-22T04:30:04;3.87;;;2.97;;
13408;SDS011;6775;49.574;11.170;2023-11-22T04:32:39;3.60;;;3.23;;
13408;SDS011;6775;49.574;11.170;2023-11-22T04:35:08;3.77;;;2.70;;
13408;SDS011;6775;49.574;11.170;2023-11-22T04:37:37;3.80;;;3.00;;
13408;SDS011;6775;49.574;11.170;2023-11-22T04:40:05;5.37;;;3.60;;
13408;SDS011;6775;49.574;11.170;2023-11-22T04:42:34;4.63;;;3.03;;
13408;SDS011;6775;49.574;11.170;2023-11-22T04:45:03;3.90;;;3.00;;
13408;SDS011;6775;49.574;11.170;2023-11-22T04:47:33;3.23;;;2.47;;
13408;SDS011;6775;49.574;11.170;2023-11-22T04:50:01;3.87;;;3.03;;
13408;SDS011;6775;49.574;11.170;2023-11-22T04:52:30;5.40;;;3.77;;
13408;SDS011;6775;49.574;11.170;2023-11-22T04:55:00;5.00;;;3.50;;
13408;SDS011;6775;49.574;11.170;2023-11-22T04:57:30;5.20;;;3.53;;
13408;SDS011;6775;49.574;11.170;2023-11-22T04:59:58;4.50;;;3.37;;
13408;SDS011;6775;49.574;11.170;2023-11-22T05:02:26;3.33;;;3.03;;
13408;SDS011;6775;49.574;11.170;2023-11-22T05:04:54;4.40;;;3.50;;
13408;SDS011;6775;49.574;11.170;2023-11-22T05:07:23;5.70;;;3.50;;
13408;SDS011;6775;49.574;11.170;2023-11-22T05:09:51;6.43;;;4.60;;
13408;SDS011;6775;49.574;11.170;2023-11-22T05:12:20;5.77;;;3.67;;
13408;SDS011;6775;49.574;11.170;2023-11-22T05:14:49;5.80;;;3.87;;
13408;SDS011;6775;49.574;11.170;2023-11-22T05:17:17;6.50;;;4.70;;
13408;SDS011;6775;49.574;11.170;2023-11-22T05:19:45;6.37;;;4.43;;
13408;SDS011;6775;49.574;11.170;2023-11-22T05:22:13;7.53;;;4.50;;
13408;SDS011;6775;49.574;11.170;2023-11-22T05:24:41;7.37;;;4.80;;
13408;SDS011;6775;49.574;11.170;2023-11-22T05:27:10;6.53;;;4.67;;
13408;SDS011;6775;49.574;11.170;2023-11-22T05:29:39;7.07;;;5.23;;
13408;SDS011;6775;49.574;11.170;2023-11-22T05:32:20;6.33;;;4.53;;
13408;SDS011;6775;49.574;11.170;2023-11-22T05:34:48;5.50;;;4.23;;
13408;SDS011;6775;49.574;11.170;2023-11-22T05:37:16;5.83;;;4.40;;
13408;SDS011;6775;49.574;11.170;2023-11-22T05:39:44;7.93;;;4.90;;
13408;SDS011;6775;49.574;11.170;2023-11-22T05:42:12;7.07;;;4.23;;
13408;SDS011;6775;49.574;11.170;2023-11-22T05:44:41;6.53;;;5.07;;
13408;SDS011;6775;49.574;11.170;2023-11-22T05:47:09;6.17;;;4.73;;
13408;SDS011;6775;49.574;11.170;2023-11-22T05:49:39;8.57;;;5.37;;
13408;SDS011;6775;49.574;11.170;2023-11-22T05:52:07;7.87;;;5.20;;
13408;SDS011;6775;49.574;11.170;2023-11-22T05:54:35;6.23;;;5.00;;
13408;SDS011;6775;49.574;11.170;2023-11-22T05:57:03;7.47;;;5.03;;
13408;SDS011;6775;49.574;11.170;2023-11-22T05:59:32;6.37;;;4.73;;
13408;SDS011;6775;49.574;11.170;2023-11-22T06:02:01;5.93;;;4.50;;
13408;SDS011;6775;49.574;11.170;2023-11-22T06:04:29;7.67;;;5.03;;
13408;SDS011;6775;49.574;11.170;2023-11-22T06:06:57;7.57;;;4.90;;
13408;SDS011;6775;49.574;11.170;2023-11-22T06:09:25;7.53;;;5.47;;
13408;SDS011;6775;49.574;11.170;2023-11-22T06:11:53;5.53;;;4.47;;
13408;SDS011;6775;49.574;11.170;2023-11-22T06:14:22;6.57;;;4.97;;
13408;SDS011;6775;49.574;11.170;2023-11-22T06:16:50;6.60;;;4.87;;
13408;SDS011;6775;49.574;11.170;2023-11-22T06:19:20;7.10;;;5.37;;
13408;SDS011;6775;49.574;11.170;2023-11-22T06:21:48;6.83;;;5.27;;
13408;SDS011;6775;49.574;11.170;2023-11-22T06:24:16;6.03;;;5.30;;
13408;SDS011;6775;49.574;11.170;2023-11-22T06:26:44;7.37;;;5.50;;
13408;SDS011;6775;49.574;11.170;2023-11-22T06:29:13;7.53;;;5.27;;
13408;SDS011;6775;49.574;11.170;2023-11-22T06:31:42;7.70;;;5.20;;
13408;SDS011;6775;49.574;11.170;2023-11-22T06:34:10;7.10;;;5.30;;
13408;SDS011;6775;49.574;11.170;2023-11-22T06:36:39;6.13;;;4.77;;
13408;SDS011;6775;49.574;11.170;2023-11-22T06:39:08;10.97;;;5.23;;
13408;SDS011;6775;49.574;11.170;2023-11-22T06:41:40;5.83;;;4.80;;
13408;SDS011;6775;49.574;11.170;2023-11-22T06:44:08;5.80;;;4.70;;
13408;SDS011;6775;49.574;11.170;2023-11-22T06:46:36;6.73;;;5.07;;
13408;SDS011;6775;49.574;11.170;2023-11-22T06:49:05;6.60;;;5.27;;
13408;SDS011;6775;49.574;11.170;2023-11-22T06:51:33;6.23;;;5.07;;
13408;SDS011;6775;49.574;11.170;2023-11-22T06:54:02;6.73;;;4.97;;
13408;SDS011;6775;49.574;11.170;2023-11-22T06:56:30;6.30;;;4.57;;
13408;SDS011;6775;49.574;11.170;2023-11-22T06:58:59;6.03;;;4.13;;
13408;SDS011;6775;49.574;11.170;2023-11-22T07:01:27;6.90;;;4.60;;
13408;SDS011;6775;49.574;11.170;2023-11-22T07:03:55;6.13;;;4.63;;
13408;SDS011;6775;49.574;11.170;2023-11-22T07:06:24;5.30;;;4.10;;
13408;SDS011;6775;49.574;11.170;2023-11-22T07:08:52;6.10;;;4.63;;
13408;SDS011;6775;49.574;11.170;2023-11-22T07:11:24;6.57;;;4.80;;
13408;SDS011;6775;49.574;11.170;2023-11-22T07:13:53;6.53;;;4.80;;
13408;SDS011;6775;49.574;11.170;2023-11-22T07:16:21;7.37;;;4.43;;
13408;SDS011;6775;49.574;11.170;2023-11-22T07:18:51;7.53;;;4.63;;
13408;SDS011;6775;49.574;11.170;2023-11-22T07:21:19;7.50;;;5.13;;
13408;SDS011;6775;49.574;11.170;2023-11-22T07:23:48;6.73;;;4.80;;
13408;SDS011;6775;49.574;11.170;2023-11-22T07:26:18;11.60;;;5.63;;
13408;SDS011;6775;49.574;11.170;2023-11-22T07:28:48;9.07;;;5.97;;
13408;SDS011;6775;49.574;11.170;2023-11-22T07:31:16;7.63;;;5.20;;
13408;SDS011;6775;49.574;11.170;2023-11-22T07:33:45;8.80;;;5.97;;
13408;SDS011;6775;49.574;11.170;2023-11-22T07:36:13;8.30;;;5.40;;
13408;SDS011;6775;49.574;11.170;2023-11-22T07:38:42;7.10;;;5.57;;
13408;SDS011;6775;49.574;11.170;2023-11-22T07:41:10;8.97;;;5.23;;
13408;SDS011;6775;49.574;11.170;2023-11-22T07:43:38;9.30;;;5.70;;
13408;SDS011;6775;49.574;11.170;2023-11-22T07:46:08;8.03;;;5.80;;
13408;SDS011;6775;49.574;11.170;2023-11-22T07:48:39;61.97;;;22.73;;
13408;SDS011;6775;49.574;11.170;2023-11-22T07:51:08;24.37;;;11.67;;
13408;SDS011;6775;49.574;11.170;2023-11-22T07:53:37;15.53;;;8.47;;
13408;SDS011;6775;49.574;11.170;2023-11-22T07:56:06;13.07;;;8.40;;
13408;SDS011;6775;49.574;11.170;2023-11-22T07:58:36;11.67;;;6.60;;
13408;SDS011;6775;49.574;11.170;2023-11-22T08:01:04;8.63;;;6.53;;
13408;SDS011;6775;49.574;11.170;2023-11-22T08:03:41;8.70;;;5.87;;
13408;SDS011;6775;49.574;11.170;2023-11-22T08:06:12;8.90;;;5.67;;
13408;SDS011;6775;49.574;11.170;2023-11-22T08:08:40;9.03;;;5.83;;
13408;SDS011;6775;49.574;11.170;2023-11-22T08:11:08;9.57;;;5.77;;
13408;SDS011;6775;49.574;11.170;2023-11-22T08:13:41;8.53;;;5.60;;
13408;SDS011;6775;49.574;11.170;2023-11-22T08:16:11;6.37;;;5.00;;
13408;SDS011;6775;49.574;11.170;2023-11-22T08:18:41;8.63;;;5.70;;
13408;SDS011;6775;49.574;11.170;2023-11-22T08:21:10;8.97;;;5.53;;
13408;SDS011;6775;49.574;11.170;2023-11-22T08:23:38;7.40;;;5.10;;
13408;SDS011;6775;49.574;11.170;2023-11-22T08:26:07;8.80;;;5.30;;
13408;SDS011;6775;49.574;11.170;2023-11-22T08:28:35;11.73;;;6.60;;
13408;SDS011;6775;49.574;11.170;2023-11-22T08:31:04;8.47;;;6.20;;
13408;SDS011;6775;49.574;11.170;2023-11-22T08:33:35;9.47;;;6.50;;
13408;SDS011;6775;49.574;11.170;2023-11-22T08:36:05;7.77;;;5.43;;
13408;SDS011;6775;49.574;11.170;2023-11-22T08:38:35;8.80;;;6.60;;
13408;SDS011;6775;49.574;11.170;2023-11-22T08:41:05;13.40;;;7.73;;
13408;SDS011;6775;49.574;11.170;2023-11-22T08:43:37;11.17;;;7.17;;
13408;SDS011;6775;49.574;11.170;2023-11-22T08:46:06;7.93;;;6.07;;
13408;SDS011;6775;49.574;11.170;2023-11-22T08:48:40;8.50;;;6.03;;
13408;SDS011;6775;49.574;11.170;2023-11-22T08:51:11;8.27;;;5.87;;
13408;SDS011;6775;49.574;11.170;2023-11-22T08:53:39;7.03;;;5.47;;
13408;SDS011;6775;49.574;11.170;2023-11-22T08:56:10;8.17;;;5.70;;
13408;SDS011;6775;49.574;11.170;2023-11-22T08:58:39;8.37;;;5.43;;
13408;SDS011;6775;49.574;11.170;2023-11-22T09:01:07;7.67;;;5.60;;
13408;SDS011;6775;49.574;11.170;2023-11-22T09:03:35;7.47;;;5.10;;
13408;SDS011;6775;49.574;11.170;2023-11-22T09:06:04;6.70;;;4.80;;
13408;SDS011;6775;49.574;11.170;2023-11-22T09:08:35;8.33;;;5.30;;
13408;SDS011;6775;49.574;11.170;2023-11-22T09:11:04;6.60;;;5.30;;
13408;SDS011;6775;49.574;11.170;2023-11-22T09:13:33;8.90;;;5.73;;
13408;SDS011;6775;49.574;11.170;2023-11-22T09:16:01;6.73;;;5.50;;
13408;SDS011;6775;49.574;11.170;2023-11-22T09:18:31;7.43;;;4.80;;
13408;SDS011;6775;49.574;11.170;2023-11-22T09:20:59;9.57;;;5.30;;
13408;SDS011;6775;49.574;11.170;2023-11-22T09:23:28;7.90;;;5.40;;
13408;SDS011;6775;49.574;11.170;2023-11-22T09:25:57;8.07;;;4.90;;
13408;SDS011;6775;49.574;11.170;2023-11-22T09:28:26;7.47;;;4.90;;
13408;SDS011;6775;49.574;11.170;2023-11-22T09:30:54;6.90;;;4.50;;
13408;SDS011;6775;49.574;11.170;2023-11-22T09:33:27;7.87;;;5.20;;
13408;SDS011;6775;49.574;11.170;2023-11-22T09:35:55;6.63;;;4.27;;
13408;SDS011;6775;49.574;11.170;2023-11-22T09:38:24;5.73;;;4.50;;
13408;SDS011;6775;49.574;11.170;2023-11-22T09:40:52;7.63;;;5.03;;
13408;SDS011;6775;49.574;11.170;2023-11-22T09:43:21;7.13;;;4.80;;
13408;SDS011;6775;49.574;11.170;2023-11-22T09:45:52;7.70;;;5.10;;
13408;SDS011;6775;49.574;11.170;2023-11-22T09:48:24;7.17;;;4.70;;
13408;SDS011;6775;49.574;11.170;2023-11-22T09:50:56;5.97;;;4.63;;
13408;SDS011;6775;49.574;11.170;2023-11-22T09:53:31;5.97;;;4.23;;
13408;SDS011;6775;49.574;11.170;2023-11-22T09:56:02;7.00;;;4.50;;
13408;SDS011;6775;49.574;11.170;2023-11-22T09:58:34;6.77;;;5.13;;
13408;SDS011;6775;49.574;11.170;2023-11-22T10:01:06;6.80;;;4.77;;
13408;SDS011;6775;49.574;11.170;2023-11-22T10:03:37;8.07;;;4.70;;
13408;SDS011;6775;49.574;11.170;2023-11-22T10:06:06;7.20;;;4.80;;
13408;SDS011;6775;49.574;11.170;2023-11-22T10:08:36;8.00;;;5.00;;
13408;SDS011;6775;49.574;11.170;2023-11-22T10:11:04;6.17;;;4.30;;
13408;SDS011;6775;49.574;11.170;2023-11-22T10:13:34;5.87;;;4.47;;
13408;SDS011;6775;49.574;11.170;2023-11-22T10:16:09;6.50;;;4.40;;
13408;SDS011;6775;49.574;11.170;2023-11-22T10:18:40;6.93;;;4.63;;
13408;SDS011;6775;49.574;11.170;2023-11-22T10:21:18;6.00;;;4.40;;
13408;SDS011;6775;49.574;11.170;2023-11-22T10:23:48;7.43;;;5.10;;
13408;SDS011;6775;49.574;11.170;2023-11-22T10:26:18;7.80;;;4.57;;
13408;SDS011;6775;49.574;11.170;2023-11-22T10:28:48;5.93;;;4.07;;
13408;SDS011;6775;49.574;11.170;2023-11-22T10:31:19;7.67;;;4.83;;
13408;SDS011;6775;49.574;11.170;2023-11-22T10:33:48;8.40;;;4.80;;
13408;SDS011;6775;49.574;11.170;2023-11-22T10:36:17;6.23;;;4.50;;
13408;SDS011;6775;49.574;11.170;2023-11-22T10:38:46;6.37;;;4.67;;
13408;SDS011;6775;49.574;11.170;2023-11-22T10:41:16;6.67;;;4.37;;
13408;SDS011;6775;49.574;11.170;2023-11-22T10:43:50;7.83;;;4.67;;
13408;SDS011;6775;49.574;11.170;2023-11-22T10:46:22;6.60;;;4.70;;
13408;SDS011;6775;49.574;11.170;2023-11-22T10:48:56;6.80;;;4.73;;
13408;SDS011;6775;49.574;11.170;2023-11-22T10:51:26;4.87;;;4.27;;
13408;SDS011;6775;49.574;11.170;2023-11-22T10:53:59;7.60;;;4.87;;
13408;SDS011;6775;49.574;11.170;2023-11-22T10:56:31;5.47;;;4.20;;
13408;SDS011;6775;49.574;11.170;2023-11-22T10:59:12;9.80;;;6.17;;
13408;SDS011;6775;49.574;11.170;2023-11-22T11:01:44;5.50;;;4.77;;
13408;SDS011;6775;49.574;11.170;2023-11-22T11:04:18;9.33;;;5.23;;
13408;SDS011;6775;49.574;11.170;2023-11-22T11:06:51;7.03;;;4.80;;
13408;SDS011;6775;49.574;11.170;2023-11-22T11:09:23;8.57;;;5.67;;
13408;SDS011;6775;49.574;11.170;2023-11-22T11:11:58;7.17;;;4.90;;
13408;SDS011;6775;49.574;11.170;2023-11-22T11:14:33;6.33;;;5.10;;
13408;SDS011;6775;49.574;11.170;2023-11-22T11:17:02;7.80;;;5.17;;
13408;SDS011;6775;49.574;11.170;2023-11-22T11:19:31;5.43;;;4.53;;
13408;SDS011;6775;49.574;11.170;2023-11-22T11:22:00;7.00;;;5.00;;
13408;SDS011;6775;49.574;11.170;2023-11-22T11:24:33;6.07;;;4.83;;
13408;SDS011;6775;49.574;11.170;2023-11-22T11:27:07;6.07;;;4.83;;
13408;SDS011;6775;49.574;11.170;2023-11-22T11:29:39;7.70;;;5.10;;
13408;SDS011;6775;49.574;11.170;2023-11-22T11:32:13;5.77;;;4.43;;
13408;SDS011;6775;49.574;11.170;2023-11-22T11:34:58;7.77;;;5.40;;
13408;SDS011;6775;49.574;11.170;2023-11-22T11:37:32;7.40;;;4.80;;
13408;SDS011;6775;49.574;11.170;2023-11-22T11:40:02;6.93;;;4.90;;
13408;SDS011;6775;49.574;11.170;2023-11-22T11:42:54;5.83;;;4.73;;
13408;SDS011;6775;49.574;11.170;2023-11-22T11:45:23;8.03;;;4.90;;
13408;SDS011;6775;49.574;11.170;2023-11-22T11:47:51;7.83;;;5.00;;
13408;SDS011;6775;49.574;11.170;2023-11-22T11:50:20;6.73;;;4.80;;
13408;SDS011;6775;49.574;11.170;2023-11-22T11:52:49;5.73;;;4.30;;
13408;SDS011;6775;49.574;11.170;2023-11-22T11:55:17;6.23;;;4.30;;
13408;SDS011;6775;49.574;11.170;2023-11-22T11:57:45;5.40;;;3.90;;
13408;SDS011;6775;49.574;11.170;2023-11-22T12:00:14;8.40;;;4.83;;
13408;SDS011;6775;49.574;11.170;2023-11-22T12:02:43;7.20;;;5.10;;
13408;SDS011;6775;49.574;11.170;2023-11-22T12:05:12;6.37;;;4.43;;
13408;SDS011;6775;49.574;11.170;2023-11-22T12:07:40;6.93;;;4.70;;
13408;SDS011;6775;49.574;11.170;2023-11-22T12:10:09;6.53;;;3.90;;
13408;SDS011;6775;49.574;11.170;2023-11-22T12:12:39;7.13;;;4.50;;
13408;SDS011;6775;49.574;11.170;2023-11-22T12:15:12;6.07;;;4.30;;
13408;SDS011;6775;49.574;11.170;2023-11-22T12:17:41;6.40;;;4.37;;
13408;SDS011;6775;49.574;11.170;2023-11-22T12:20:11;6.90;;;4.60;;
13408;SDS011;6775;49.574;11.170;2023-11-22T12:22:45;6.30;;;4.67;;
13408;SDS011;6775;49.574;11.170;2023-11-22T12:25:14;6.33;;;4.33;;
13408;SDS011;6775;49.574;11.170;2023-11-22T12:27:42;4.77;;;4.00;;
13408;SDS011;6775;49.574;11.170;2023-11-22T12:33:01;5.73;;;4.47;;
13408;SDS011;6775;49.574;11.170;2023-11-22T12:35:30;6.17;;;4.00;;
13408;SDS011;6775;49.574;11.170;2023-11-22T12:38:00;4.63;;;4.00;;
13408;SDS011;6775;49.574;11.170;2023-11-22T12:40:29;5.63;;;4.00;;
13408;SDS011;6775;49.574;11.170;2023-11-22T12:42:59;5.50;;;3.80;;
13408;SDS011;6775;49.574;11.170;2023-11-22T12:45:30;5.03;;;3.77;;
13408;SDS011;6775;49.574;11.170;2023-11-22T12:50:57;5.97;;;4.87;;
13408;SDS011;6775;49.574;11.170;2023-11-22T12:53:25;4.87;;;4.17;;
13408;SDS011;6775;49.574;11.170;2023-11-22T12:55:55;10.30;;;7.83;;
13408;SDS011;6775;49.574;11.170;2023-11-22T12:58:24;10.33;;;6.70;;
13408;SDS011;6775;49.574;11.170;2023-11-22T13:00:54;9.40;;;6.27;;
13408;SDS011;6775;49.574;11.170;2023-11-22T13:03:27;8.47;;;5.97;;
13408;SDS011;6775;49.574;11.170;2023-11-22T13:05:55;8.50;;;5.67;;
13408;SDS011;6775;49.574;11.170;2023-11-22T13:08:25;7.50;;;5.17;;
13408;SDS011;6775;49.574;11.170;2023-11-22T13:10:56;8.03;;;5.00;;
13408;SDS011;6775;49.574;11.170;2023-11-22T13:13:25;7.07;;;4.83;;
13408;SDS011;6775;49.574;11.170;2023-11-22T13:15:56;7.60;;;4.80;;
13408;SDS011;6775;49.574;11.170;2023-11-22T13:18:24;7.13;;;4.17;;
13408;SDS011;6775;49.574;11.170;2023-11-22T13:20:53;6.40;;;4.30;;
13408;SDS011;6775;49.574;11.170;2023-11-22T13:23:23;7.20;;;4.80;;
13408;SDS011;6775;49.574;11.170;2023-11-22T13:25:51;6.00;;;4.40;;
13408;SDS011;6775;49.574;11.170;2023-11-22T13:28:19;8.50;;;5.10;;
13408;SDS011;6775;49.574;11.170;2023-11-22T13:30:47;7.20;;;5.30;;
13408;SDS011;6775;49.574;11.170;2023-11-22T13:33:15;7.53;;;4.93;;
13408;SDS011;6775;49.574;11.170;2023-11-22T13:35:44;7.13;;;4.80;;
13408;SDS011;6775;49.574;11.170;2023-11-22T13:38:14;7.53;;;4.97;;
13408;SDS011;6775;49.574;11.170;2023-11-22T13:40:43;6.80;;;4.90;;
13408;SDS011;6775;49.574;11.170;2023-11-22T13:43:12;8.23;;;5.07;;
13408;SDS011;6775;49.574;11.170;2023-11-22T13:45:40;6.17;;;5.10;;
13408;SDS011;6775;49.574;11.170;2023-11-22T13:48:09;7.37;;;5.30;;
13408;SDS011;6775;49.574;11.170;2023-11-22T13:50:37;7.80;;;4.87;;
13408;SDS011;6775;49.574;11.170;2023-11-22T13:53:06;8.30;;;6.00;;
13408;SDS011;6775;49.574;11.170;2023-11-22T13:55:37;9.13;;;4.90;;
13408;SDS011;6775;49.574;11.170;2023-11-22T13:58:06;7.30;;;4.97;;
13408;SDS011;6775;49.574;11.170;2023-11-22T14:00:35;7.77;;;5.13;;
13408;SDS011;6775;49.574;11.170;2023-11-22T14:03:05;9.13;;;5.03;;
13408;SDS011;6775;49.574;11.170;2023-11-22T14:05:34;7.37;;;5.03;;
13408;SDS011;6775;49.574;11.170;2023-11-22T14:08:05;7.73;;;4.90;;
13408;SDS011;6775;49.574;11.170;2023-11-22T14:10:34;7.97;;;5.57;;
13408;SDS011;6775;49.574;11.170;2023-11-22T14:13:02;7.27;;;4.83;;
13408;SDS011;6775;49.574;11.170;2023-11-22T14:15:32;8.20;;;5.40;;
13408;SDS011;6775;49.574;11.170;2023-11-22T14:18:00;7.60;;;6.00;;
13408;SDS011;6775;49.574;11.170;2023-11-22T14:20:29;8.40;;;5.57;;
13408;SDS011;6775;49.574;11.170;2023-11-22T14:22:59;8.53;;;5.30;;
13408;SDS011;6775;49.574;11.170;2023-11-22T14:25:27;6.80;;;4.97;;
13408;SDS011;6775;49.574;11.170;2023-11-22T14:27:55;7.83;;;4.97;;
13408;SDS011;6775;49.574;11.170;2023-11-22T14:30:25;5.73;;;4.70;;
13408;SDS011;6775;49.574;11.170;2023-11-22T14:32:56;9.73;;;5.50;;
13408;SDS011;6775;49.574;11.170;2023-11-22T14:35:26;7.73;;;5.67;;
13408;SDS011;6775;49.574;11.170;2023-11-22T14:37:54;7.10;;;4.80;;
13408;SDS011;6775;49.574;11.170;2023-11-22T14:40:24;6.63;;;4.83;;
13408;SDS011;6775;49.574;11.170;2023-11-22T14:42:52;6.70;;;4.87;;
13408;SDS011;6775;49.574;11.170;2023-11-22T14:45:20;8.70;;;5.63;;
13408;SDS011;6775;49.574;11.170;2023-11-22T14:47:48;5.83;;;5.17;;
13408;SDS011;6775;49.574;11.170;2023-11-22T14:50:19;8.80;;;6.43;;
13408;SDS011;6775;49.574;11.170;2023-11-22T14:52:48;8.33;;;5.60;;
13408;SDS011;6775;49.574;11.170;2023-11-22T14:55:17;7.60;;;5.70;;
13408;SDS011;6775;49.574;11.170;2023-11-22T14:57:47;6.67;;;4.80;;
13408;SDS011;6775;49.574;11.170;2023-11-22T15:00:16;8.80;;;6.40;;
13408;SDS011;6775;49.574;11.170;2023-11-22T15:02:45;6.27;;;5.17;;
13408;SDS011;6775;49.574;11.170;2023-11-22T15:05:20;6.23;;;5.33;;
13408;SDS011;6775;49.574;11.170;2023-11-22T15:07:48;6.30;;;4.70;;